createdAt,value
2023-01-12T00:04:48.478Z,89.33
2023-01-12T00:07:15.680Z,89.19
2023-01-12T00:09:42.531Z,89.29
2023-01-12T00:12:12.021Z,89.67
2023-01-12T00:14:39.406Z,89.69
2023-01-12T00:17:06.869Z,88.91
2023-01-12T00:19:33.723Z,88.65
2023-01-12T00:22:02.200Z,89.31
2023-01-12T00:24:32.363Z,89.05
2023-01-12T00:27:02.016Z,89.00
2023-01-12T00:29:28.893Z,89.01
2023-01-12T00:31:57.779Z,89.14
2023-01-12T00:34:29.324Z,88.75
2023-01-12T00:36:56.935Z,88.92
2023-01-12T00:39:23.731Z,88.67
2023-01-12T00:41:50.564Z,89.10
2023-01-12T00:44:17.462Z,88.88
2023-01-12T00:46:44.446Z,87.96
2023-01-12T00:49:11.563Z,88.07
2023-01-12T00:51:38.451Z,87.82
2023-01-12T00:54:05.326Z,87.60
2023-01-12T00:56:32.087Z,86.74
2023-01-12T00:59:00.992Z,87.21
2023-01-12T01:01:27.935Z,87.21
2023-01-12T01:03:55.265Z,87.24
2023-01-12T01:06:22.348Z,87.19
2023-01-12T01:08:52.546Z,86.61
2023-01-12T01:11:20.507Z,86.44
2023-01-12T01:13:47.388Z,86.49
2023-01-12T01:16:17.788Z,86.14
2023-01-12T01:18:45.176Z,86.23
2023-01-12T01:21:13.602Z,86.20
2023-01-12T01:23:42.904Z,85.83
2023-01-12T01:26:16.901Z,86.01
2023-01-12T01:28:44.035Z,86.11
2023-01-12T01:31:19.994Z,85.82
2023-01-12T01:33:50.157Z,85.61
2023-01-12T01:36:18.448Z,85.42
2023-01-12T01:38:46.962Z,85.38
2023-01-12T01:41:20.885Z,85.48
2023-01-12T01:43:57.304Z,85.25
2023-01-12T01:46:41.933Z,85.45
2023-01-12T01:49:29.840Z,85.10
2023-01-12T01:52:05.942Z,84.88
2023-01-12T01:54:40.245Z,84.83
2023-01-12T01:57:09.817Z,85.20
2023-01-12T01:59:38.485Z,84.77
2023-01-12T02:02:06.715Z,84.75
2023-01-12T02:04:36.093Z,84.57
2023-01-12T02:07:05.841Z,85.05
2023-01-12T02:09:34.406Z,85.07
2023-01-12T02:12:02.913Z,84.90
2023-01-12T02:14:29.744Z,85.17
2023-01-12T02:17:24.103Z,84.61
2023-01-12T02:20:40.222Z,84.36
2023-01-12T02:23:24.081Z,84.86
2023-01-12T02:26:12.460Z,84.16
2023-01-12T02:29:28.932Z,84.28
2023-01-12T02:32:44.164Z,83.89
2023-01-12T02:35:39.980Z,84.20
2023-01-12T02:38:29.464Z,84.30
2023-01-12T02:41:18.893Z,83.87
2023-01-12T02:43:46.492Z,83.41
2023-01-12T02:46:21.799Z,83.88
2023-01-12T02:49:07.786Z,84.16
2023-01-12T02:51:51.035Z,83.96
2023-01-12T02:54:21.695Z,83.68
2023-01-12T02:56:51.951Z,84.10
2023-01-12T02:59:26.253Z,83.90
2023-01-12T03:01:59.939Z,83.38
2023-01-12T03:04:27.772Z,83.62
2023-01-12T03:06:57.587Z,83.42
2023-01-12T03:09:30.733Z,83.53
2023-01-12T03:12:03.941Z,83.53
2023-01-12T03:14:35.989Z,83.08
2023-01-12T03:17:35.645Z,83.36
2023-01-12T03:20:14.922Z,83.62
2023-01-12T03:22:42.089Z,83.11
2023-01-12T03:25:12.359Z,83.10
2023-01-12T03:27:43.888Z,83.15
2023-01-12T03:30:18.892Z,83.39
2023-01-12T03:33:11.871Z,82.97
2023-01-12T03:35:52.248Z,83.00
2023-01-12T03:41:47.603Z,83.19
2023-01-12T03:44:45.716Z,83.48
2023-01-12T03:47:19.964Z,83.25
2023-01-12T03:50:04.191Z,83.02
2023-01-12T03:52:34.559Z,82.92
2023-01-12T03:55:05.876Z,83.36
2023-01-12T03:57:33.520Z,83.03
2023-01-12T04:00:02.880Z,83.73
2023-01-12T04:02:39.694Z,83.57
2023-01-12T04:05:12.031Z,83.49
2023-01-12T04:07:44.316Z,83.55
2023-01-12T04:10:11.362Z,83.06
2023-01-12T04:12:39.935Z,82.91
2023-01-12T04:15:07.104Z,82.54
2023-01-12T04:17:34.408Z,82.79
2023-01-12T04:20:02.974Z,82.59
2023-01-12T04:22:29.775Z,82.58
2023-01-12T04:27:57.034Z,81.99
2023-01-12T04:30:24.601Z,82.06
2023-01-12T04:32:56.475Z,82.18
2023-01-12T04:35:26.064Z,81.43
2023-01-12T04:37:53.560Z,81.23
2023-01-12T04:40:20.908Z,81.56
2023-01-12T04:42:50.967Z,81.27
2023-01-12T04:45:18.440Z,81.72
2023-01-12T04:50:37.286Z,81.08
2023-01-12T04:53:10.355Z,80.67
2023-01-12T04:55:39.057Z,79.85
2023-01-12T04:58:05.971Z,79.79
2023-01-12T05:00:33.870Z,79.63
2023-01-12T05:03:01.780Z,79.18
2023-01-12T05:05:30.521Z,79.46
2023-01-12T05:08:03.890Z,79.29
2023-01-12T05:10:31.350Z,78.18
2023-01-12T05:12:58.146Z,78.92
2023-01-12T05:15:25.372Z,78.78
2023-01-12T05:18:16.887Z,78.80
2023-01-12T05:20:47.951Z,79.03
2023-01-12T05:23:18.395Z,78.06
2023-01-12T05:25:45.200Z,78.35
2023-01-12T05:28:12.362Z,78.00
2023-01-12T05:30:39.410Z,77.27
2023-01-12T05:33:07.025Z,77.15
2023-01-12T05:35:38.145Z,76.84
2023-01-12T05:38:05.970Z,77.76
2023-01-12T05:40:36.754Z,77.60
2023-01-12T05:43:03.928Z,77.48
2023-01-12T05:45:30.855Z,78.11
2023-01-12T05:47:59.892Z,78.19
2023-01-12T05:50:27.852Z,78.23
2023-01-12T05:53:20.183Z,78.55
2023-01-12T05:55:47.453Z,78.42
2023-01-12T05:58:14.290Z,78.39
2023-01-12T06:00:41.426Z,78.80
2023-01-12T06:03:08.272Z,78.49
2023-01-12T06:05:34.986Z,78.65
2023-01-12T06:08:02.958Z,78.82
2023-01-12T06:10:30.409Z,79.27
2023-01-12T06:13:22.225Z,79.39
2023-01-12T06:15:49.513Z,79.52
2023-01-12T06:18:18.028Z,79.24
2023-01-12T06:20:44.727Z,79.46
2023-01-12T06:23:11.581Z,79.17
2023-01-12T06:25:40.013Z,79.63
2023-01-12T06:28:07.419Z,81.38
2023-01-12T06:30:34.175Z,80.28
2023-01-12T06:33:02.611Z,80.41
2023-01-12T06:35:29.561Z,80.77
2023-01-12T06:37:57.181Z,80.92
2023-01-12T06:40:24.516Z,80.62
2023-01-12T06:42:51.251Z,80.93
2023-01-12T06:45:19.442Z,81.12
2023-01-12T06:47:49.897Z,80.58
2023-01-12T06:50:18.434Z,80.65
2023-01-12T06:52:46.943Z,80.43
2023-01-12T06:55:13.779Z,80.65
2023-01-12T06:57:41.654Z,80.81
2023-01-12T07:03:00.371Z,80.57
2023-01-12T07:05:28.938Z,80.42
2023-01-12T07:07:59.689Z,80.11
2023-01-12T07:10:27.062Z,80.60
2023-01-12T07:13:00.926Z,80.51
2023-01-12T07:15:28.433Z,80.42
2023-01-12T07:17:56.946Z,80.10
2023-01-12T07:20:25.899Z,79.97
2023-01-12T07:22:55.381Z,80.23
2023-01-12T07:25:23.197Z,79.93
2023-01-12T07:27:51.214Z,80.05
2023-01-12T07:30:22.454Z,80.63
2023-01-12T07:32:51.086Z,80.64
2023-01-12T07:35:18.360Z,80.60
2023-01-12T07:37:52.858Z,80.71
2023-01-12T07:40:21.037Z,80.35
2023-01-12T07:42:47.934Z,80.05
2023-01-12T07:45:16.135Z,79.84
2023-01-12T07:47:42.922Z,80.60
2023-01-12T07:50:13.031Z,79.94
2023-01-12T07:52:41.142Z,79.70
2023-01-12T07:55:08.738Z,79.77
2023-01-12T07:57:35.610Z,80.02
2023-01-12T08:00:02.945Z,79.40
2023-01-12T08:02:30.332Z,78.45
2023-01-12T08:04:58.433Z,78.36
2023-01-12T08:07:25.307Z,78.03
2023-01-12T08:09:54.076Z,76.81
2023-01-12T08:12:23.835Z,77.07
2023-01-12T08:14:51.391Z,75.85
2023-01-12T08:17:20.728Z,74.27
2023-01-12T08:19:55.556Z,72.96
2023-01-12T08:22:31.941Z,72.64
2023-01-12T08:25:06.434Z,72.19
2023-01-12T08:27:42.882Z,71.68
2023-01-12T08:30:15.003Z,71.10
2023-01-12T08:32:42.156Z,71.04
2023-01-12T08:35:09.534Z,70.81
2023-01-12T08:37:36.581Z,71.11
2023-01-12T08:40:06.226Z,70.80
2023-01-12T08:42:33.462Z,69.93
2023-01-12T08:45:00.593Z,69.88
2023-01-12T08:47:28.766Z,69.98
2023-01-12T08:49:58.512Z,69.53
2023-01-12T08:52:26.265Z,70.54
2023-01-12T08:54:53.318Z,69.53
2023-01-12T08:57:20.442Z,68.94
2023-01-12T08:59:48.890Z,68.53
2023-01-12T09:02:16.672Z,68.94
2023-01-12T09:04:48.914Z,68.12
2023-01-12T09:07:17.392Z,68.23
2023-01-12T09:09:44.554Z,67.65
2023-01-12T09:12:12.320Z,68.21
2023-01-12T09:14:40.031Z,67.14
2023-01-12T09:17:07.498Z,66.38
2023-01-12T09:19:34.358Z,65.94
2023-01-12T09:22:01.277Z,65.39
2023-01-12T09:24:28.151Z,65.55
2023-01-12T09:26:54.984Z,65.34
2023-01-12T09:29:22.268Z,63.89
2023-01-12T09:31:51.884Z,63.89
2023-01-12T09:34:19.379Z,64.01
2023-01-12T09:36:46.951Z,64.15
2023-01-12T09:39:26.722Z,62.87
2023-01-12T09:41:56.941Z,63.06
2023-01-12T09:44:30.227Z,61.75
2023-01-12T09:47:03.218Z,62.08
2023-01-12T09:49:43.995Z,61.09
2023-01-12T09:52:22.273Z,61.66
2023-01-12T09:54:51.490Z,60.54
2023-01-12T09:57:28.803Z,59.42
2023-01-12T10:00:02.746Z,60.36
2023-01-12T10:02:43.375Z,60.51
2023-01-12T10:05:39.713Z,60.09
2023-01-12T10:08:17.833Z,59.47
2023-01-12T10:11:12.912Z,58.30
2023-01-12T10:13:56.102Z,57.95
2023-01-12T10:16:49.056Z,58.51
2023-01-12T10:19:24.123Z,58.56
2023-01-12T10:21:54.890Z,56.98
2023-01-12T10:24:25.373Z,57.17
2023-01-12T10:27:03.581Z,57.67
2023-01-12T10:29:32.193Z,56.54
2023-01-12T10:31:58.952Z,57.38
2023-01-12T10:34:26.467Z,56.58
2023-01-12T10:36:55.882Z,55.60
2023-01-12T10:39:37.656Z,56.04
2023-01-12T10:42:21.519Z,55.76
2023-01-12T10:45:13.228Z,55.05
2023-01-12T10:48:19.431Z,55.60
2023-01-12T10:51:03.926Z,56.20
2023-01-12T10:53:58.609Z,56.76
2023-01-12T10:56:36.028Z,55.41
2023-01-12T10:59:25.740Z,55.31
2023-01-12T11:02:07.209Z,55.97
2023-01-12T11:04:40.075Z,55.41
2023-01-12T11:10:29.004Z,53.68
2023-01-12T11:12:58.704Z,54.18
2023-01-12T11:15:26.387Z,53.47
2023-01-12T11:17:59.512Z,52.90
2023-01-12T11:20:37.058Z,54.57
2023-01-12T11:23:09.897Z,54.19
2023-01-12T11:25:45.726Z,54.02
2023-01-12T11:28:17.909Z,53.71
2023-01-12T11:30:55.261Z,53.08
2023-01-12T11:36:34.883Z,53.09
2023-01-12T11:39:29.321Z,52.42
2023-01-12T11:42:11.110Z,52.02
2023-01-12T11:45:01.012Z,51.73
2023-01-12T11:47:34.917Z,50.67
2023-01-12T11:50:20.756Z,50.71
2023-01-12T11:52:47.640Z,50.18
2023-01-12T11:55:21.398Z,49.33
2023-01-12T12:01:16.254Z,49.21
2023-01-12T12:04:24.779Z,49.95
2023-01-12T12:07:02.946Z,49.67
2023-01-12T12:10:05.253Z,48.75
2023-01-12T12:13:00.908Z,48.87
2023-01-12T12:15:57.172Z,48.91
2023-01-12T12:18:26.903Z,48.22
2023-01-12T12:21:15.766Z,48.59
2023-01-12T12:23:52.973Z,49.42
2023-01-12T12:26:35.865Z,49.56
2023-01-12T12:29:21.925Z,48.31
2023-01-12T12:32:23.381Z,48.93
2023-01-12T12:35:12.927Z,47.89
2023-01-12T12:37:43.474Z,48.18
2023-01-12T12:40:16.371Z,48.72
2023-01-12T12:42:48.883Z,48.37
2023-01-12T12:46:22.588Z,47.67
2023-01-12T12:49:00.853Z,47.42
2023-01-12T12:51:32.871Z,47.24
2023-01-12T12:54:07.118Z,47.31
2023-01-12T12:56:38.083Z,44.96
2023-01-12T12:59:05.412Z,45.29
2023-01-12T13:01:32.371Z,46.23
2023-01-12T13:04:01.524Z,45.82
2023-01-12T13:06:28.554Z,46.92
2023-01-12T13:09:00.135Z,45.16
2023-01-12T13:11:49.751Z,44.68
2023-01-12T13:14:43.194Z,46.11
2023-01-12T13:17:19.909Z,45.72
2023-01-12T13:19:49.458Z,45.53
2023-01-12T13:22:42.632Z,45.46
2023-01-12T13:25:17.456Z,45.41
2023-01-12T13:27:53.941Z,44.95
2023-01-12T13:30:29.134Z,45.24
2023-01-12T13:33:15.524Z,44.81
2023-01-12T13:35:43.249Z,45.70
2023-01-12T13:38:25.919Z,44.39
2023-01-12T13:41:14.374Z,45.01
2023-01-12T13:43:50.948Z,45.68
2023-01-12T13:46:29.048Z,44.55
2023-01-12T13:48:56.901Z,44.36
2023-01-12T13:51:38.352Z,46.19
2023-01-12T13:54:12.049Z,45.00
2023-01-12T13:57:18.367Z,47.39
2023-01-12T14:00:02.980Z,45.98
2023-01-12T14:02:40.564Z,47.21
2023-01-12T14:05:39.266Z,45.22
2023-01-12T14:08:06.009Z,47.02
2023-01-12T14:10:43.846Z,46.42
2023-01-12T14:13:42.951Z,45.01
2023-01-12T14:16:14.911Z,46.99
2023-01-12T14:18:42.902Z,46.42
2023-01-12T14:21:33.405Z,49.30
2023-01-12T14:24:16.644Z,49.34
2023-01-12T14:26:44.178Z,49.80
2023-01-12T14:29:11.147Z,51.06
2023-01-12T14:31:42.904Z,51.13
2023-01-12T14:34:38.407Z,53.10
2023-01-12T14:37:28.936Z,52.99
2023-01-12T14:39:57.735Z,53.39
2023-01-12T14:42:24.759Z,53.07
2023-01-12T14:44:57.880Z,56.24
2023-01-12T14:47:28.794Z,55.83
2023-01-12T14:49:55.956Z,55.57
2023-01-12T14:52:31.398Z,55.10
2023-01-12T14:55:18.106Z,53.80
2023-01-12T14:57:53.556Z,53.58
2023-01-12T15:00:23.837Z,55.96
2023-01-12T15:02:54.064Z,54.65
2023-01-12T15:05:26.904Z,55.31
2023-01-12T15:08:09.116Z,56.53
2023-01-12T15:11:08.283Z,56.23
2023-01-12T15:13:36.966Z,57.12
2023-01-12T15:16:05.056Z,58.16
2023-01-12T15:18:32.967Z,56.57
2023-01-12T15:21:02.949Z,57.57
2023-01-12T15:23:34.874Z,56.81
2023-01-12T15:26:03.396Z,58.11
2023-01-12T15:28:30.904Z,58.49
2023-01-12T15:30:59.358Z,57.63
2023-01-12T15:33:26.480Z,57.53
2023-01-12T15:39:13.572Z,59.91
2023-01-12T15:41:40.799Z,58.90
2023-01-12T15:44:15.569Z,57.90
2023-01-12T15:46:43.146Z,60.98
2023-01-12T15:49:11.625Z,59.45
2023-01-12T15:51:42.943Z,61.00
2023-01-12T15:54:13.032Z,59.58
2023-01-12T15:56:43.956Z,59.35
2023-01-12T15:59:11.392Z,59.26
2023-01-12T16:01:42.246Z,58.95
2023-01-12T16:07:06.797Z,58.95
2023-01-12T16:09:34.643Z,60.73
2023-01-12T16:12:01.479Z,60.97
2023-01-12T16:14:32.378Z,59.23
2023-01-12T16:16:59.449Z,59.19
2023-01-12T16:19:27.514Z,60.07
2023-01-12T16:21:54.215Z,57.34
2023-01-12T16:24:47.949Z,57.84
2023-01-12T16:27:16.129Z,59.89
2023-01-12T16:29:43.281Z,61.29
2023-01-12T16:32:10.846Z,63.05
2023-01-12T16:34:39.151Z,65.33
2023-01-12T16:37:06.291Z,65.76
2023-01-12T16:39:34.945Z,66.15
2023-01-12T16:42:05.561Z,67.00
2023-01-12T16:44:34.191Z,67.82
2023-01-12T16:47:01.938Z,67.79
2023-01-12T16:49:28.881Z,67.77
2023-01-12T16:51:55.625Z,67.50
2023-01-12T16:54:24.913Z,68.06
2023-01-12T16:56:51.639Z,68.33
2023-01-12T16:59:20.670Z,69.14
2023-01-12T17:01:47.954Z,70.08
2023-01-12T17:04:14.878Z,69.53
2023-01-12T17:06:41.672Z,69.51
2023-01-12T17:09:09.564Z,70.81
2023-01-12T17:11:36.403Z,71.15
2023-01-12T17:16:57.916Z,71.29
2023-01-12T17:19:27.180Z,71.78
2023-01-12T17:24:47.193Z,72.00
2023-01-12T17:27:17.408Z,72.45
2023-01-12T17:32:41.845Z,71.39
2023-01-12T17:35:08.908Z,71.32
2023-01-12T17:37:36.176Z,72.91
2023-01-12T17:40:03.799Z,72.07
2023-01-12T17:42:31.874Z,72.98
2023-01-12T17:44:58.946Z,73.20
2023-01-12T17:47:26.832Z,74.10
2023-01-12T17:49:54.542Z,73.72
2023-01-12T17:52:22.850Z,73.47
2023-01-12T17:54:49.885Z,73.76
2023-01-12T17:57:16.702Z,74.36
2023-01-12T17:59:43.905Z,73.37
2023-01-12T18:02:12.242Z,73.02
2023-01-12T18:04:39.450Z,73.83
2023-01-12T18:07:09.352Z,74.15
2023-01-12T18:09:36.190Z,74.99
2023-01-12T18:12:03.425Z,73.92
2023-01-12T18:14:30.457Z,75.04
2023-01-12T18:16:58.453Z,74.32
2023-01-12T18:19:25.903Z,74.56
2023-01-12T18:21:53.491Z,75.05
2023-01-12T18:24:20.431Z,74.57
2023-01-12T18:26:47.212Z,74.99
2023-01-12T18:29:14.129Z,75.15
2023-01-12T18:31:44.341Z,75.79
2023-01-12T18:34:11.730Z,75.41
2023-01-12T18:36:41.279Z,74.43
2023-01-12T18:39:13.928Z,75.11
2023-01-12T18:42:06.240Z,75.01
2023-01-12T18:44:35.801Z,74.88
2023-01-12T18:47:03.301Z,75.10
2023-01-12T18:49:35.005Z,74.60
2023-01-12T18:52:08.925Z,75.55
2023-01-12T18:54:35.883Z,76.39
2023-01-12T18:57:03.151Z,76.40
2023-01-12T18:59:34.250Z,76.60
2023-01-12T19:02:03.285Z,76.05
2023-01-12T19:04:30.441Z,76.39
2023-01-12T19:06:58.064Z,76.29
2023-01-12T19:09:25.120Z,76.75
2023-01-12T19:11:52.405Z,76.10
2023-01-12T19:14:19.635Z,75.83
2023-01-12T19:16:46.902Z,75.66
2023-01-12T19:22:31.072Z,75.10
2023-01-12T19:24:58.192Z,75.26
2023-01-12T19:27:25.849Z,73.39
2023-01-12T19:32:43.900Z,74.28
2023-01-12T19:35:36.907Z,75.53
2023-01-12T19:38:05.393Z,74.96
2023-01-12T19:40:33.170Z,74.83
2023-01-12T19:43:04.776Z,74.72
2023-01-12T19:45:36.270Z,74.12
2023-01-12T19:48:07.272Z,75.14
2023-01-12T19:50:35.339Z,74.88
2023-01-12T19:55:53.755Z,75.83
2023-01-12T19:58:22.975Z,75.85
2023-01-12T20:00:51.474Z,76.14
2023-01-12T20:03:21.083Z,76.31
2023-01-12T20:05:52.548Z,77.37
2023-01-12T20:08:21.909Z,77.23
2023-01-12T20:11:04.014Z,77.02
2023-01-12T20:13:32.306Z,76.21
2023-01-12T20:16:00.147Z,75.77
2023-01-12T20:18:29.347Z,75.43
2023-01-12T20:20:56.384Z,75.22
2023-01-12T20:23:23.387Z,74.79
2023-01-12T20:25:50.488Z,74.58
2023-01-12T20:28:17.693Z,74.97
2023-01-12T20:30:44.694Z,74.22
2023-01-12T20:33:12.435Z,73.91
2023-01-12T20:35:44.979Z,74.19
2023-01-12T20:38:14.486Z,74.13
2023-01-12T20:40:43.181Z,73.81
2023-01-12T20:43:10.297Z,73.90
2023-01-12T20:45:37.356Z,73.78
2023-01-12T20:48:05.730Z,73.11
2023-01-12T20:50:32.825Z,73.35
2023-01-12T20:53:00.465Z,73.53
2023-01-12T20:55:27.309Z,72.99
2023-01-12T20:57:54.212Z,73.26
2023-01-12T21:00:21.396Z,73.65
2023-01-12T21:02:48.309Z,73.58
2023-01-12T21:05:15.172Z,72.94
2023-01-12T21:07:41.979Z,73.76
2023-01-12T21:10:09.370Z,73.29
2023-01-12T21:12:36.213Z,73.70
2023-01-12T21:15:03.628Z,73.72
2023-01-12T21:17:30.447Z,74.57
2023-01-12T21:19:58.303Z,73.75
2023-01-12T21:22:51.019Z,74.62
2023-01-12T21:25:18.455Z,74.74
2023-01-12T21:27:45.526Z,74.66
2023-01-12T21:30:12.726Z,75.42
2023-01-12T21:32:39.580Z,75.38
2023-01-12T21:35:06.981Z,75.16
2023-01-12T21:37:36.064Z,75.13
2023-01-12T21:40:02.974Z,76.20
2023-01-12T21:42:29.932Z,75.67
2023-01-12T21:44:57.023Z,75.76
2023-01-12T21:47:27.386Z,76.18
2023-01-12T21:49:54.182Z,76.66
2023-01-12T21:52:24.920Z,76.40
2023-01-12T21:54:51.660Z,75.79
2023-01-12T21:57:22.427Z,76.36
2023-01-12T21:59:49.340Z,76.19
2023-01-12T22:02:17.471Z,75.94
2023-01-12T22:04:44.258Z,76.47
2023-01-12T22:07:12.654Z,76.63
2023-01-12T22:09:39.651Z,75.98
2023-01-12T22:12:10.464Z,76.27
2023-01-12T22:14:37.476Z,76.40
2023-01-12T22:17:06.452Z,76.11
2023-01-12T22:19:34.538Z,76.60
2023-01-12T22:22:27.490Z,75.71
2023-01-12T22:24:56.044Z,75.34
2023-01-12T22:27:25.076Z,75.93
2023-01-12T22:29:53.309Z,75.52
2023-01-12T22:32:45.517Z,76.74
2023-01-12T22:35:13.241Z,76.06
2023-01-12T22:37:41.502Z,76.58
2023-01-12T22:40:11.887Z,77.25
2023-01-12T22:42:39.540Z,75.78
2023-01-12T22:45:07.205Z,74.79
2023-01-12T22:47:47.740Z,76.65
2023-01-12T22:50:15.856Z,74.81
2023-01-12T22:52:44.131Z,74.89
2023-01-12T22:55:17.228Z,74.61
2023-01-12T22:57:47.310Z,75.78
2023-01-12T23:00:18.414Z,75.95
2023-01-12T23:03:13.179Z,77.29
2023-01-12T23:06:06.875Z,77.43
2023-01-12T23:08:33.942Z,76.88
2023-01-12T23:11:10.859Z,78.22
2023-01-12T23:16:56.007Z,76.53
2023-01-12T23:19:22.980Z,76.29
2023-01-12T23:21:52.285Z,77.60
2023-01-12T23:24:20.107Z,78.14
2023-01-12T23:26:47.089Z,77.45
2023-01-12T23:29:16.177Z,76.48
2023-01-12T23:31:43.437Z,77.52
2023-01-12T23:34:10.576Z,76.83
2023-01-12T23:36:44.938Z,77.18
2023-01-12T23:39:12.431Z,77.05
2023-01-12T23:41:39.999Z,77.11
2023-01-12T23:44:32.090Z,76.73
2023-01-12T23:46:59.451Z,78.18
2023-01-12T23:49:26.349Z,77.84
2023-01-12T23:51:57.990Z,76.34
2023-01-12T23:54:26.410Z,75.55
2023-01-12T23:56:53.418Z,76.29
2023-01-12T23:59:20.455Z,76.73
